createdAt,value
2023-03-29T00:01:36.198Z,101799.80
2023-03-29T00:04:06.349Z,101801.00
2023-03-29T00:06:35.527Z,101803.00
2023-03-29T00:09:06.233Z,101807.60
2023-03-29T00:11:34.842Z,101802.20
2023-03-29T00:14:03.645Z,101797.80
2023-03-29T00:16:32.704Z,101797.60
2023-03-29T00:19:01.415Z,101790.60
2023-03-29T00:21:30.100Z,101795.00
2023-03-29T00:23:59.962Z,101793.80
2023-03-29T00:26:28.703Z,101791.20
2023-03-29T00:28:57.596Z,101785.20
2023-03-29T00:31:27.743Z,101786.00
2023-03-29T00:33:57.221Z,101787.80
2023-03-29T00:36:25.812Z,101781.60
2023-03-29T00:38:56.967Z,101784.00
2023-03-29T00:41:26.460Z,101778.60
2023-03-29T00:44:00.678Z,101770.20
2023-03-29T00:46:31.406Z,101774.80
2023-03-29T00:49:12.997Z,101771.20
2023-03-29T00:51:43.072Z,101774.60
2023-03-29T00:54:18.930Z,101775.80
2023-03-29T00:56:51.422Z,101767.20
2023-03-29T00:59:24.740Z,101762.40
2023-03-29T01:02:26.256Z,101764.80
2023-03-29T01:05:06.865Z,101762.20
2023-03-29T01:07:51.325Z,101759.00
2023-03-29T01:10:32.305Z,101755.00
2023-03-29T01:13:13.383Z,101748.40
2023-03-29T01:15:45.568Z,101738.60
2023-03-29T01:18:14.945Z,101740.00
2023-03-29T01:21:21.578Z,101731.80
2023-03-29T01:24:15.607Z,101723.00
2023-03-29T01:27:03.039Z,101713.60
2023-03-29T01:29:42.166Z,101713.40
2023-03-29T01:32:45.924Z,101712.80
2023-03-29T01:35:32.856Z,101712.40
2023-03-29T01:38:19.914Z,101708.40
2023-03-29T01:40:48.614Z,101720.00
2023-03-29T01:43:52.960Z,101718.60
2023-03-29T01:46:38.894Z,101712.80
2023-03-29T01:49:17.224Z,101705.40
2023-03-29T01:51:55.436Z,101705.80
2023-03-29T01:54:48.187Z,101700.60
2023-03-29T01:57:18.198Z,101695.40
2023-03-29T01:59:48.526Z,101691.00
2023-03-29T02:02:19.530Z,101693.00
2023-03-29T02:04:54.256Z,101689.00
2023-03-29T02:07:30.898Z,101684.80
2023-03-29T02:09:59.979Z,101683.00
2023-03-29T02:12:29.165Z,101677.80
2023-03-29T02:15:07.269Z,101671.00
2023-03-29T02:17:36.194Z,101669.80
2023-03-29T02:20:15.193Z,101672.20
2023-03-29T02:23:24.536Z,101674.20
2023-03-29T02:25:55.030Z,101674.00
2023-03-29T02:28:25.700Z,101669.80
2023-03-29T02:31:05.055Z,101661.60
2023-03-29T02:33:47.439Z,101659.60
2023-03-29T02:36:24.216Z,101652.40
2023-03-29T02:38:54.550Z,101650.40
2023-03-29T02:41:24.277Z,101650.80
2023-03-29T02:43:53.737Z,101646.40
2023-03-29T02:46:23.096Z,101646.20
2023-03-29T02:48:54.804Z,101643.60
2023-03-29T02:51:31.087Z,101635.00
2023-03-29T02:54:18.104Z,101630.00
2023-03-29T02:56:55.244Z,101628.00
2023-03-29T02:59:24.549Z,101622.20
2023-03-29T03:01:53.943Z,101622.20
2023-03-29T03:04:23.189Z,101617.00
2023-03-29T03:06:52.482Z,101603.60
2023-03-29T03:09:21.218Z,101600.40
2023-03-29T03:11:49.862Z,101600.20
2023-03-29T03:14:19.456Z,101597.20
2023-03-29T03:16:48.104Z,101594.60
2023-03-29T03:19:17.464Z,101585.80
2023-03-29T03:21:47.386Z,101583.60
2023-03-29T03:24:18.015Z,101573.80
2023-03-29T03:26:46.601Z,101579.00
2023-03-29T03:29:16.638Z,101579.20
2023-03-29T03:32:07.094Z,101584.00
2023-03-29T03:34:54.951Z,101584.20
2023-03-29T03:37:26.395Z,101579.60
2023-03-29T03:39:55.698Z,101582.60
2023-03-29T03:42:27.454Z,101586.00
2023-03-29T03:44:56.922Z,101585.00
2023-03-29T03:47:46.378Z,101584.20
2023-03-29T03:50:25.878Z,101588.00
2023-03-29T03:52:54.560Z,101585.20
2023-03-29T03:55:24.270Z,101580.60
2023-03-29T03:58:13.539Z,101577.20
2023-03-29T04:00:43.055Z,101566.40
2023-03-29T04:03:22.137Z,101565.60
2023-03-29T04:05:51.071Z,101570.20
2023-03-29T04:08:22.778Z,101566.60
2023-03-29T04:11:14.147Z,101563.60
2023-03-29T04:13:46.520Z,101559.80
2023-03-29T04:16:32.305Z,101563.80
2023-03-29T04:19:09.799Z,101560.20
2023-03-29T04:21:38.701Z,101556.80
2023-03-29T04:24:08.429Z,101555.20
2023-03-29T04:26:37.502Z,101552.00
2023-03-29T04:29:17.090Z,101550.40
2023-03-29T04:31:53.031Z,101552.00
2023-03-29T04:34:42.169Z,101550.00
2023-03-29T04:37:11.007Z,101547.00
2023-03-29T04:39:40.360Z,101552.40
2023-03-29T04:42:09.824Z,101557.00
2023-03-29T04:44:38.709Z,101557.60
2023-03-29T04:47:08.780Z,101551.00
2023-03-29T04:49:38.191Z,101551.80
2023-03-29T04:52:10.257Z,101552.20
2023-03-29T04:54:39.374Z,101541.40
2023-03-29T04:57:26.356Z,101540.00
2023-03-29T05:00:15.511Z,101532.40
2023-03-29T05:03:00.032Z,101536.20
2023-03-29T05:05:31.793Z,101533.00
2023-03-29T05:08:02.379Z,101534.40
2023-03-29T05:10:54.551Z,101535.80
2023-03-29T05:13:23.844Z,101530.20
2023-03-29T05:15:52.953Z,101530.80
2023-03-29T05:18:22.468Z,101525.80
2023-03-29T05:20:53.432Z,101526.20
2023-03-29T05:23:23.922Z,101524.40
2023-03-29T05:26:14.388Z,101522.20
2023-03-29T05:28:44.195Z,101517.80
2023-03-29T05:31:16.687Z,101517.80
2023-03-29T05:33:48.943Z,101516.40
2023-03-29T05:36:19.697Z,101511.00
2023-03-29T05:38:51.446Z,101507.80
2023-03-29T05:41:21.250Z,101507.40
2023-03-29T05:44:09.392Z,101495.40
2023-03-29T05:46:38.494Z,101497.20
2023-03-29T05:49:08.921Z,101493.40
2023-03-29T05:52:00.861Z,101495.60
2023-03-29T05:54:30.920Z,101486.20
2023-03-29T05:56:59.699Z,101483.80
2023-03-29T05:59:29.887Z,101480.80
2023-03-29T06:02:00.673Z,101478.40
2023-03-29T06:04:29.796Z,101473.20
2023-03-29T06:07:17.857Z,101474.20
2023-03-29T06:09:54.840Z,101471.00
2023-03-29T06:12:25.162Z,101470.40
2023-03-29T06:15:05.139Z,101465.40
2023-03-29T06:17:40.238Z,101462.00
2023-03-29T06:20:11.847Z,101460.20
2023-03-29T06:22:42.854Z,101464.60
2023-03-29T06:25:12.862Z,101450.00
2023-03-29T06:27:42.296Z,101445.00
2023-03-29T06:30:12.437Z,101440.00
2023-03-29T06:32:43.116Z,101440.00
2023-03-29T06:35:30.688Z,101433.40
2023-03-29T06:38:08.455Z,101431.60
2023-03-29T06:41:07.570Z,101422.40
2023-03-29T06:43:55.494Z,101422.00
2023-03-29T06:46:27.389Z,101416.80
2023-03-29T06:48:57.986Z,101410.20
2023-03-29T06:51:31.791Z,101402.60
2023-03-29T06:54:01.091Z,101401.40
2023-03-29T06:56:30.292Z,101397.00
2023-03-29T06:59:04.916Z,101398.40
2023-03-29T07:01:47.549Z,101394.00
2023-03-29T07:04:25.483Z,101393.40
2023-03-29T07:07:33.377Z,101394.20
2023-03-29T07:10:28.749Z,101389.20
2023-03-29T07:13:20.692Z,101385.00
2023-03-29T07:15:50.634Z,101371.40
2023-03-29T07:18:44.413Z,101368.00
2023-03-29T07:21:16.751Z,101337.00
2023-03-29T07:23:45.642Z,101334.80
2023-03-29T07:26:14.734Z,101334.40
2023-03-29T07:28:57.769Z,101315.00
2023-03-29T07:31:29.733Z,101308.60
2023-03-29T07:34:12.337Z,101295.60
2023-03-29T07:36:41.122Z,101290.20
2023-03-29T07:39:10.115Z,101278.40
2023-03-29T07:41:39.113Z,101281.40
2023-03-29T07:44:19.574Z,101280.00
2023-03-29T07:46:48.819Z,101278.00
2023-03-29T07:49:20.344Z,101282.40
2023-03-29T07:51:50.346Z,101289.80
2023-03-29T07:54:19.232Z,101289.60
2023-03-29T07:56:54.722Z,101279.20
2023-03-29T07:59:32.377Z,101273.80
2023-03-29T08:02:12.124Z,101276.00
2023-03-29T08:04:43.528Z,101278.20
2023-03-29T08:07:35.916Z,101283.20
2023-03-29T08:10:26.942Z,101289.40
2023-03-29T08:13:27.778Z,101289.00
2023-03-29T08:16:26.337Z,101292.00
2023-03-29T08:19:02.111Z,101286.40
2023-03-29T08:21:43.090Z,101284.80
2023-03-29T08:24:12.112Z,101289.00
2023-03-29T08:26:49.067Z,101290.40
2023-03-29T08:29:19.323Z,101289.20
2023-03-29T08:31:47.972Z,101291.80
2023-03-29T08:34:16.905Z,101291.60
2023-03-29T08:37:16.896Z,101287.00
2023-03-29T08:39:48.856Z,101283.20
2023-03-29T08:43:21.236Z,101286.80
2023-03-29T08:46:35.300Z,101283.20
2023-03-29T08:49:20.149Z,101281.60
2023-03-29T08:52:20.271Z,101282.80
2023-03-29T08:54:53.972Z,101277.80
2023-03-29T08:58:01.201Z,101272.80
2023-03-29T09:00:51.663Z,101271.20
2023-03-29T09:03:28.175Z,101273.20
2023-03-29T09:06:11.126Z,101271.40
2023-03-29T09:08:45.237Z,101269.40
2023-03-29T09:11:51.742Z,101266.80
2023-03-29T09:14:45.624Z,101272.60
2023-03-29T09:17:32.532Z,101275.80
2023-03-29T09:20:20.275Z,101269.60
2023-03-29T09:23:01.144Z,101270.40
2023-03-29T09:26:08.633Z,101269.40
2023-03-29T09:29:29.546Z,101267.80
2023-03-29T09:31:59.917Z,101266.00
2023-03-29T09:34:44.224Z,101263.20
2023-03-29T09:37:32.368Z,101249.80
2023-03-29T09:40:11.368Z,101236.20
2023-03-29T09:43:04.360Z,101234.80
2023-03-29T09:45:35.315Z,101221.00
2023-03-29T09:48:17.735Z,101213.80
2023-03-29T09:50:52.572Z,101203.40
2023-03-29T09:53:22.151Z,101196.00
2023-03-29T09:56:02.214Z,101189.60
2023-03-29T09:58:52.982Z,101188.20
2023-03-29T10:01:22.097Z,101178.80
2023-03-29T10:03:54.510Z,101176.80
2023-03-29T10:06:26.942Z,101172.60
2023-03-29T10:08:59.640Z,101167.60
2023-03-29T10:11:38.591Z,101165.40
2023-03-29T10:14:36.426Z,101157.20
2023-03-29T10:17:15.840Z,101154.40
2023-03-29T10:19:51.228Z,101157.80
2023-03-29T10:22:25.177Z,101159.00
2023-03-29T10:24:57.490Z,101160.20
2023-03-29T10:27:32.220Z,101164.60
2023-03-29T10:30:09.639Z,101166.00
2023-03-29T10:32:39.133Z,101158.40
2023-03-29T10:35:20.304Z,101157.00
2023-03-29T10:37:53.254Z,101154.80
2023-03-29T10:40:32.628Z,101150.60
2023-03-29T10:43:20.876Z,101150.80
2023-03-29T10:46:26.516Z,101159.80
2023-03-29T10:49:15.586Z,101150.80
2023-03-29T10:51:50.087Z,101160.20
2023-03-29T10:54:22.400Z,101160.20
2023-03-29T10:57:02.207Z,101153.20
2023-03-29T11:00:16.991Z,101154.60
2023-03-29T11:02:53.844Z,101154.00
2023-03-29T11:05:30.184Z,101143.20
2023-03-29T11:08:21.044Z,101140.40
2023-03-29T11:11:17.193Z,101142.20
2023-03-29T11:13:59.434Z,101144.00
2023-03-29T11:17:08.947Z,101143.40
2023-03-29T11:19:52.562Z,101131.40
2023-03-29T11:22:47.799Z,101136.80
2023-03-29T11:26:00.862Z,101129.20
2023-03-29T11:28:35.583Z,101128.20
2023-03-29T11:31:25.241Z,101116.00
2023-03-29T11:34:02.722Z,101098.20
2023-03-29T11:36:36.333Z,101094.40
2023-03-29T11:39:39.005Z,101098.80
2023-03-29T11:42:23.866Z,101103.00
2023-03-29T11:44:56.665Z,101102.00
2023-03-29T11:47:33.044Z,101089.40
2023-03-29T11:50:14.902Z,101090.00
2023-03-29T11:53:14.203Z,101102.00
2023-03-29T11:55:43.911Z,101091.60
2023-03-29T11:58:27.061Z,101094.40
2023-03-29T12:01:06.477Z,101082.80
2023-03-29T12:04:00.587Z,101092.00
2023-03-29T12:06:48.602Z,101077.80
2023-03-29T12:09:45.045Z,101085.40
2023-03-29T12:12:51.328Z,101077.20
2023-03-29T12:15:32.157Z,101075.60
2023-03-29T12:18:23.189Z,101073.20
2023-03-29T12:21:02.221Z,101069.00
2023-03-29T12:23:33.960Z,101073.60
2023-03-29T12:26:35.225Z,101072.20
2023-03-29T12:29:19.172Z,101067.40
2023-03-29T12:32:21.984Z,101075.40
2023-03-29T12:35:39.228Z,101080.40
2023-03-29T12:38:30.970Z,101071.60
2023-03-29T12:41:25.186Z,101070.00
2023-03-29T12:44:16.906Z,101073.20
2023-03-29T12:46:55.279Z,101074.60
2023-03-29T12:49:31.965Z,101080.20
2023-03-29T12:52:06.440Z,101082.40
2023-03-29T12:54:34.864Z,101090.00
2023-03-29T12:57:28.250Z,101090.40
2023-03-29T12:59:56.874Z,101089.00
2023-03-29T13:02:35.729Z,101088.20
2023-03-29T13:05:25.025Z,101089.60
2023-03-29T13:07:54.065Z,101087.20
2023-03-29T13:10:43.230Z,101084.60
2023-03-29T13:13:22.870Z,101081.40
2023-03-29T13:15:51.807Z,101078.80
2023-03-29T13:18:34.905Z,101078.20
2023-03-29T13:21:23.338Z,101075.60
2023-03-29T13:23:54.899Z,101067.00
2023-03-29T13:27:16.113Z,101064.40
2023-03-29T13:29:53.719Z,101061.00
2023-03-29T13:33:08.814Z,101042.40
2023-03-29T13:36:08.994Z,101040.00
2023-03-29T13:38:54.632Z,101039.00
2023-03-29T13:41:48.682Z,101034.00
2023-03-29T13:44:44.705Z,101032.80
2023-03-29T13:47:19.275Z,101032.40
2023-03-29T13:49:55.135Z,101028.80
2023-03-29T13:52:36.873Z,101027.40
2023-03-29T13:55:27.295Z,101018.60
2023-03-29T13:58:45.069Z,101016.00
2023-03-29T14:01:35.783Z,101010.20
2023-03-29T14:04:07.374Z,101000.80
2023-03-29T14:06:38.850Z,100997.00
2023-03-29T14:09:09.399Z,100997.40
2023-03-29T14:11:38.450Z,101008.60
2023-03-29T14:14:08.613Z,101008.00
2023-03-29T14:16:40.319Z,101007.20
2023-03-29T14:19:36.702Z,101003.20
2023-03-29T14:22:15.175Z,100996.60
2023-03-29T14:24:52.745Z,100992.00
2023-03-29T14:27:22.480Z,100996.20
2023-03-29T14:29:53.479Z,100999.60
2023-03-29T14:32:31.090Z,101001.40
2023-03-29T14:35:01.389Z,100997.80
2023-03-29T14:37:30.414Z,100995.60
2023-03-29T14:39:59.762Z,100994.60
2023-03-29T14:42:29.769Z,100984.00
2023-03-29T14:45:04.465Z,100987.40
2023-03-29T14:47:34.191Z,101003.20
2023-03-29T14:50:04.363Z,101009.00
2023-03-29T14:52:34.984Z,101012.60
2023-03-29T14:55:04.453Z,101012.60
2023-03-29T14:57:36.716Z,101014.60
2023-03-29T15:00:38.899Z,101016.60
2023-03-29T15:03:15.476Z,101014.00
2023-03-29T15:05:52.619Z,101013.00
2023-03-29T15:08:36.289Z,101008.60
2023-03-29T15:11:24.354Z,101008.80
2023-03-29T15:14:05.965Z,101010.20
2023-03-29T15:16:40.877Z,101009.20
2023-03-29T15:19:22.472Z,100999.00
2023-03-29T15:21:52.168Z,100998.40
2023-03-29T15:24:32.538Z,101002.00
2023-03-29T15:27:14.796Z,100996.40
2023-03-29T15:29:46.980Z,101001.60
2023-03-29T15:32:25.004Z,100995.00
2023-03-29T15:35:02.329Z,100995.80
2023-03-29T15:37:31.693Z,100992.60
2023-03-29T15:40:00.892Z,100995.40
2023-03-29T15:42:29.577Z,100996.40
2023-03-29T15:44:58.378Z,100985.20
2023-03-29T15:47:28.340Z,100989.00
2023-03-29T15:49:57.275Z,100992.80
2023-03-29T15:52:26.083Z,100985.80
2023-03-29T15:54:54.852Z,100985.60
2023-03-29T15:57:23.908Z,100985.80
2023-03-29T15:59:52.843Z,100982.00
2023-03-29T16:02:24.534Z,100978.00
2023-03-29T16:04:53.809Z,100975.80
2023-03-29T16:07:23.098Z,100974.20
2023-03-29T16:09:51.995Z,100973.80
2023-03-29T16:12:20.884Z,100969.60
2023-03-29T16:14:50.121Z,100970.80
2023-03-29T16:17:18.970Z,100963.20
2023-03-29T16:19:47.558Z,100963.00
2023-03-29T16:22:16.552Z,100958.00
2023-03-29T16:24:45.239Z,100953.00
2023-03-29T16:27:14.130Z,100951.80
2023-03-29T16:29:42.817Z,100944.60
2023-03-29T16:32:11.768Z,100948.20
2023-03-29T16:37:09.902Z,100947.60
2023-03-29T16:39:38.898Z,100948.00
2023-03-29T16:42:12.301Z,100953.20
2023-03-29T16:44:41.158Z,100951.20
2023-03-29T16:47:12.479Z,100948.60
2023-03-29T16:49:42.413Z,100947.20
2023-03-29T16:52:13.514Z,100944.40
2023-03-29T16:54:42.858Z,100940.40
2023-03-29T16:57:11.520Z,100942.80
2023-03-29T16:59:42.110Z,100942.20
2023-03-29T17:02:11.003Z,100946.20
2023-03-29T17:04:39.683Z,100947.00
2023-03-29T17:07:08.680Z,100950.60
2023-03-29T17:09:37.829Z,100956.80
2023-03-29T17:12:07.408Z,100956.40
2023-03-29T17:14:36.192Z,100953.20
2023-03-29T17:17:05.374Z,100958.00
2023-03-29T17:19:34.300Z,100957.40
2023-03-29T17:22:02.957Z,100957.80
2023-03-29T17:24:32.024Z,100952.20
2023-03-29T17:27:00.940Z,100957.80
2023-03-29T17:29:29.888Z,100960.20
2023-03-29T17:31:58.632Z,100962.60
2023-03-29T17:34:29.261Z,100961.80
2023-03-29T17:36:58.069Z,100956.00
2023-03-29T17:39:27.426Z,100956.00
2023-03-29T17:41:56.867Z,100956.00
2023-03-29T17:44:26.159Z,100957.20
2023-03-29T17:46:54.978Z,100958.80
2023-03-29T17:49:23.630Z,100959.20
2023-03-29T17:51:52.325Z,100960.80
2023-03-29T17:54:21.226Z,100967.20
2023-03-29T17:56:50.794Z,100965.40
2023-03-29T17:59:19.733Z,100964.00
2023-03-29T18:01:48.435Z,100967.80
2023-03-29T18:04:17.531Z,100968.60
2023-03-29T18:06:46.710Z,100966.20
2023-03-29T18:09:15.641Z,100963.60
2023-03-29T18:11:44.378Z,100969.60
2023-03-29T18:14:12.990Z,100968.80
2023-03-29T18:16:42.202Z,100970.40
2023-03-29T18:19:11.253Z,100968.00
2023-03-29T18:21:40.246Z,100972.00
2023-03-29T18:24:08.937Z,100976.00
2023-03-29T18:26:37.824Z,100975.20
2023-03-29T18:29:09.176Z,100971.00
2023-03-29T18:31:38.805Z,100971.20
2023-03-29T18:34:07.708Z,100970.00
2023-03-29T18:36:37.391Z,100972.00
2023-03-29T18:39:06.145Z,100970.40
2023-03-29T18:41:37.580Z,100970.40
2023-03-29T18:44:08.068Z,100966.60
2023-03-29T18:46:37.001Z,100971.60
2023-03-29T18:49:07.958Z,100967.60
2023-03-29T18:51:36.473Z,100971.60
2023-03-29T18:54:06.557Z,100966.00
2023-03-29T18:56:35.797Z,100967.60
2023-03-29T18:59:06.652Z,100967.60
2023-03-29T19:01:36.318Z,100963.40
2023-03-29T19:04:05.952Z,100965.00
2023-03-29T19:06:34.843Z,100957.40
2023-03-29T19:09:05.413Z,100958.80
2023-03-29T19:11:36.203Z,100961.40
2023-03-29T19:14:08.454Z,100959.40
2023-03-29T19:16:37.067Z,100959.40
2023-03-29T19:19:06.980Z,100962.00
2023-03-29T19:21:35.772Z,100963.00
2023-03-29T19:24:05.753Z,100968.60
2023-03-29T19:26:34.376Z,100965.20
2023-03-29T19:29:03.591Z,100962.40
2023-03-29T19:31:33.847Z,100957.00
2023-03-29T19:34:02.589Z,100963.40
2023-03-29T19:36:31.270Z,100968.40
2023-03-29T19:38:59.856Z,100963.00
2023-03-29T19:41:29.054Z,100960.80
2023-03-29T19:43:57.634Z,100960.40
2023-03-29T19:46:28.530Z,100959.00
2023-03-29T19:48:59.621Z,100955.40
2023-03-29T19:51:28.628Z,100954.60
2023-03-29T19:53:57.994Z,100952.80
2023-03-29T19:56:28.179Z,100949.80
2023-03-29T19:58:57.025Z,100946.40
2023-03-29T20:01:27.493Z,100939.40
2023-03-29T20:03:56.425Z,100934.20
2023-03-29T20:06:25.436Z,100936.60
2023-03-29T20:08:54.201Z,100933.80
2023-03-29T20:11:24.450Z,100935.00
2023-03-29T20:13:53.245Z,100929.80
2023-03-29T20:16:24.650Z,100926.00
2023-03-29T20:18:54.310Z,100924.60
2023-03-29T20:21:22.884Z,100924.80
2023-03-29T20:23:51.660Z,100928.60
2023-03-29T20:26:20.260Z,100924.80
2023-03-29T20:28:48.944Z,100922.40
2023-03-29T20:31:17.685Z,100923.40
2023-03-29T20:33:46.422Z,100923.80
2023-03-29T20:36:18.833Z,100924.00
2023-03-29T20:38:47.479Z,100916.60
2023-03-29T20:41:16.600Z,100912.60
2023-03-29T20:43:46.445Z,100909.40
2023-03-29T20:46:18.555Z,100905.20
2023-03-29T20:48:53.486Z,100901.00
2023-03-29T20:51:30.499Z,100897.60
2023-03-29T20:54:05.328Z,100894.40
2023-03-29T20:56:40.248Z,100899.40
2023-03-29T20:59:11.006Z,100890.80
2023-03-29T21:01:42.779Z,100888.40
2023-03-29T21:04:11.469Z,100895.20
2023-03-29T21:06:40.009Z,100879.60
2023-03-29T21:09:08.821Z,100885.40
2023-03-29T21:11:37.724Z,100880.00
2023-03-29T21:14:06.269Z,100871.00
2023-03-29T21:16:35.543Z,100871.60
2023-03-29T21:19:04.065Z,100871.60
2023-03-29T21:21:33.971Z,100867.20
2023-03-29T21:24:04.860Z,100864.20
2023-03-29T21:26:34.515Z,100861.40
2023-03-29T21:29:04.317Z,100858.80
2023-03-29T21:31:33.524Z,100853.40
2023-03-29T21:34:02.985Z,100847.80
2023-03-29T21:36:32.447Z,100841.80
2023-03-29T21:39:01.344Z,100839.00
2023-03-29T21:41:30.901Z,100838.00
2023-03-29T21:43:59.930Z,100834.40
2023-03-29T21:46:29.363Z,100832.20
2023-03-29T21:48:59.429Z,100832.40
2023-03-29T21:51:28.140Z,100828.40
2023-03-29T21:53:56.940Z,100821.80
2023-03-29T21:56:26.744Z,100821.80
2023-03-29T21:58:55.946Z,100817.40
2023-03-29T22:01:24.792Z,100812.00
2023-03-29T22:03:55.959Z,100819.80
2023-03-29T22:06:26.306Z,100816.40
2023-03-29T22:08:55.325Z,100817.00
2023-03-29T22:11:26.045Z,100813.80
2023-03-29T22:13:55.544Z,100814.40
2023-03-29T22:16:26.096Z,100816.20
2023-03-29T22:18:54.864Z,100813.60
2023-03-29T22:21:27.369Z,100813.60
2023-03-29T22:23:57.939Z,100810.20
2023-03-29T22:26:31.426Z,100811.00
2023-03-29T22:29:01.785Z,100818.80
2023-03-29T22:31:31.651Z,100810.40
2023-03-29T22:34:02.958Z,100796.60
2023-03-29T22:36:32.565Z,100802.00
2023-03-29T22:39:01.266Z,100800.20
2023-03-29T22:41:29.834Z,100800.40
2023-03-29T22:44:01.287Z,100798.40
2023-03-29T22:46:30.223Z,100796.20
2023-03-29T22:48:59.238Z,100796.00
2023-03-29T22:51:27.960Z,100793.40
2023-03-29T22:53:56.548Z,100792.40
2023-03-29T22:56:25.747Z,100794.00
2023-03-29T22:58:54.495Z,100789.80
2023-03-29T23:01:23.048Z,100792.00
2023-03-29T23:03:52.041Z,100791.20
2023-03-29T23:06:20.797Z,100785.20
2023-03-29T23:08:49.587Z,100783.00
2023-03-29T23:11:18.174Z,100781.60
2023-03-29T23:13:49.072Z,100786.00
2023-03-29T23:16:21.009Z,100778.20
2023-03-29T23:18:49.860Z,100778.80
2023-03-29T23:21:18.652Z,100783.20
2023-03-29T23:23:47.240Z,100772.20
2023-03-29T23:26:16.240Z,100775.00
2023-03-29T23:28:45.183Z,100772.20
2023-03-29T23:31:18.688Z,100763.80
2023-03-29T23:33:47.521Z,100758.20
2023-03-29T23:36:18.941Z,100753.20
2023-03-29T23:38:49.087Z,100755.80
2023-03-29T23:41:18.186Z,100761.80
2023-03-29T23:43:47.655Z,100759.60
2023-03-29T23:46:19.062Z,100752.80
2023-03-29T23:48:50.530Z,100754.00
2023-03-29T23:51:23.416Z,100758.00
2023-03-29T23:53:52.190Z,100756.20
2023-03-29T23:56:21.740Z,100751.80
2023-03-29T23:58:50.540Z,100745.80
